NCAR-RAP Real-Time Weather Data

Output produced by METARs form (22 January 2018  04:06 UTC)
found at http://weather.rap.ucar.edu/surface/
 
KFZY 220354Z AUTO 00000KT 9SM OVC035 03/M01 A3010 RMK AO2 SLP197 T00331011
KFZY 220254Z AUTO 00000KT 9SM OVC042 03/M01 A3010 RMK AO2 SLP197 T00331011 56005
KFZY 220154Z AUTO 13003KT 9SM OVC037 04/M01 A3011 RMK AO2 SLP199 T00391011
KFZY 220129Z AUTO 12003KT 10SM SCT027 OVC035 04/M01 A3011 RMK AO2 T00391011
KFZY 220054Z AUTO 10004KT 10SM OVC028 03/M01 A3011 RMK AO2 SLP200 T00331011
KFZY 212354Z AUTO 00000KT 9SM OVC029 04/M01 A3011 RMK AO2 SLP203 T00391011 10061 20033 53003
KFZY 212328Z AUTO VRB03KT 9SM OVC029 04/M01 A3011 RMK AO2 T00391011
KFZY 212254Z AUTO VRB03KT 9SM OVC033 04/M01 A3011 RMK AO2 SLP201 T00391011
KFZY 212154Z AUTO 00000KT 8SM OVC034 04/M01 A3010 RMK AO2 SLP199 T00441011
KFZY 212054Z AUTO VRB03KT 9SM OVC031 05/M01 A3010 RMK AO2 SLP198 T00501011 55002
KFZY 211954Z AUTO 15004KT 8SM OVC031 06/M01 A3010 RMK AO2 SLP198 T00561006
KFZY 211854Z AUTO 21005KT 8SM FEW028 06/M01 A3010 RMK AO2 SLP197 T00561011
KFZY 211754Z AUTO 18003KT 9SM CLR 06/M01 A3011 RMK AO2 SLP200 T00561011 10056 21033 58014
KFZY 211654Z AUTO 21004KT 8SM CLR 05/M01 A3013 RMK AO2 SLP208 T00501011
KFZY 211554Z AUTO 22005KT 8SM CLR 03/M01 A3015 RMK AO2 SLP214 T00331011
KFZY 211454Z AUTO 21004KT 8SM CLR 02/M02 A3015 RMK AO2 SLP215 T00221017 51010
KFZY 211354Z AUTO 20003KT 7SM CLR 00/M02 A3015 RMK AO2 SLP215 T00001022
KFZY 211254Z AUTO 00000KT 5SM BR CLR M02/M03 A3013 RMK AO2 SLP207 T10221033
KFZY 211154Z AUTO 00000KT 7SM CLR M02/M03 A3012 RMK AO2 SLP205 T10171033 10006 21022 53014
KFZY 211054Z AUTO 23003KT 9SM CLR 00/M03 A3011 RMK AO2 SLP199 T00001028
KFZY 210954Z AUTO 00000KT 9SM CLR M01/M03 A3009 RMK AO2 SLP194 T10111033
KFZY 210854Z AUTO 20005KT 9SM CLR 00/M03 A3008 RMK AO2 SLP191 T00001033 53012
KFZY 210754Z AUTO 20004KT 9SM OVC034 00/M03 A3007 RMK AO2 SLP186 T00001033
KFZY 210654Z AUTO 20003KT 10SM SCT037 01/M03 A3006 RMK AO2 SLP183 T00061028
KFZY 210554Z AUTO 24005KT 10SM CLR 00/M03 A3005 RMK AO2 SLP179 T00001033 10039 20000 53013
KFZY 210454Z AUTO 25005KT 10SM CLR 01/M03 A3003 RMK AO2 SLP174 T00061033 400671022
KFZY 210354Z AUTO 23005KT 10SM CLR 01/M03 A3001 RMK AO2 SLP167 T00111033
KFZY 210254Z AUTO 25009KT 10SM CLR 02/M03 A3001 RMK AO2 SLP165 T00221028 51009
KFZY 210154Z AUTO 25009KT 10SM CLR 03/M03 A3001 RMK AO2 SLP165 T00281028
KFZY 210054Z AUTO 26011G16KT 10SM CLR 03/M03 A3000 RMK AO2 SLP162 T00331028
KFZY 202354Z AUTO 26012KT 10SM CLR 04/M03 A2998 RMK AO2 SLP156 T00391028 10061 20039 51028
KFZY 202254Z AUTO 26009KT 10SM CLR 04/M02 A2997 RMK AO2 SLP153 T00441022
KFZY 202154Z AUTO 26011G19KT 10SM CLR 05/M02 A2994 RMK AO2 PRESRR SLP143 T00501022
KFZY 202054Z AUTO 25014G17KT 10SM CLR 06/M02 A2990 RMK AO2 SLP126 T00561022 53016
KFZY 201954Z AUTO 25010KT 10SM CLR 06/M02 A2986 RMK AO2 SLP116 T00561022
KFZY 201854Z AUTO 27014G23KT 10SM CLR 06/M02 A2985 RMK AO2 SLP113 T00611022
KFZY 201754Z AUTO 27014G24KT 10SM FEW039 06/M03 A2985 RMK AO2 PK WND 29026/1741 SLP112 T00611028 10067 20017 51010
KFZY 201654Z AUTO 25013G26KT 10SM CLR 06/M03 A2984 RMK AO2 PK WND 23026/1648 SLP108 T00611028
KFZY 201554Z AUTO 24011G20KT 10SM CLR 06/M03 A2983 RMK AO2 SLP106 T00561033
KFZY 201454Z AUTO 23007KT 10SM CLR 04/M04 A2982 RMK AO2 SLP103 T00391044 51023
KFZY 201354Z AUTO 23008KT 10SM CLR 03/M05 A2981 RMK AO2 SLP099 T00281050
KFZY 201254Z AUTO 23005KT 10SM CLR 02/M06 A2978 RMK AO2 SLP089 T00221056
KFZY 201154Z AUTO 23008KT 10SM CLR 02/M06 A2975 RMK AO2 SLP079 T00221061 10028 21022 53019
KFZY 201054Z AUTO 22008KT 10SM CLR 03/M06 A2973 RMK AO2 SLP071 T00281061
KFZY 200954Z AUTO 20008KT 10SM CLR 02/M07 A2970 RMK AO2 SLP062 T00221067
KFZY 200854Z AUTO 20007KT 10SM CLR 03/M06 A2969 RMK AO2 SLP060 T00281061 58004
KFZY 200754Z AUTO 19007KT 10SM CLR 02/M07 A2971 RMK AO2 SLP065 T00221067
KFZY 200654Z AUTO 18005KT 10SM CLR 01/M07 A2971 RMK AO2 SLP064 T00111067
KFZY 200554Z AUTO 00000KT 10SM CLR M02/M07 A2971 RMK AO2 SLP064 T10221067 11011 21028 58025
KFZY 200454Z AUTO 15003KT 10SM CLR M02/M07 A2973 RMK AO2 SLP075 T10171072 400111122
KFZY 200354Z AUTO 00000KT 10SM CLR M03/M07 A2976 RMK AO2 SLP083 T10281072
KFZY 200254Z AUTO 00000KT 10SM CLR M02/M07 A2978 RMK AO2 SLP091 T10171072 58018
KFZY 200154Z AUTO 16004KT 10SM CLR M02/M08 A2981 RMK AO2 SLP100 T10171083
KFZY 200054Z AUTO 13004KT 10SM CLR M02/M08 A2982 RMK AO2 SLP105 T10171083
KFZY 192354Z AUTO 14004KT 10SM CLR M01/M08 A2983 RMK AO2 SLP109 T10111083 10011 21022 58015
KFZY 192254Z AUTO 12003KT 10SM CLR M02/M08 A2986 RMK AO2 SLP118 T10171083
KFZY 192154Z AUTO 00000KT 10SM CLR M01/M08 A2986 RMK AO2 SLP118 T10111078
KFZY 192054Z AUTO 18007KT 10SM CLR 01/M08 A2988 RMK AO2 SLP125 T00061083 58007
KFZY 191954Z AUTO 19010KT 10SM CLR 01/M08 A2988 RMK AO2 SLP125 T00061078
KFZY 191854Z AUTO 26009KT 10SM CLR 01/M08 A2991 RMK AO2 SLP134 T00061078
KFZY 191754Z AUTO 21010KT 10SM FEW036 01/M07 A2990 RMK AO2 SLP132 T00061072 10006 21061 58016
KFZY 191654Z AUTO 24008KT 10SM OVC031 M01/M07 A2993 RMK AO2 SLP144 T10061072
KFZY 191554Z AUTO 22007KT 10SM OVC031 M02/M08 A2995 RMK AO2 SLP148 T10171078
KFZY 191513Z AUTO 21008KT 10SM OVC030 M02/M08 A2995 RMK AO2 T10221083
KFZY 191454Z AUTO 20006KT 10SM OVC028 M03/M08 A2995 RMK AO2 SLP149 T10281083 51002
KFZY 191404Z AUTO 17004KT 10SM OVC029 M04/M09 A2994 RMK AO2 T10441094
KFZY 191354Z AUTO 18004KT 10SM OVC030 M04/M09 A2995 RMK AO2 SLP147 T10441094
KFZY 191254Z AUTO 18005KT 10SM OVC033 M06/M10 A2996 RMK AO2 SLP151 T10561100
KFZY 191154Z AUTO 18006KT 10SM OVC035 M06/M11 A2995 RMK AO2 SLP147 I6000 T10611106 11061 21122 53002
KFZY 191054Z AUTO 18007KT 10SM CLR M07/M12 A2994 RMK AO2 SLP146 T10721117
KFZY 190954Z AUTO 17007KT 7SM CLR M10/M13 A2994 RMK AO2 SLP145 I1000 T11001128
KFZY 190854Z AUTO 00000KT 6SM BR CLR M12/M13 A2994 RMK AO2 SLP148 T11171128 56007
KFZY 190754Z AUTO 00000KT 8SM CLR M08/M12 A2994 RMK AO2 SLP148 T10831117
KFZY 190654Z AUTO 00000KT 8SM CLR M07/M11 A2995 RMK AO2 SLP151 T10671111
KFZY 190554Z AUTO 00000KT 8SM OVC041 M07/M11 A2996 RMK AO2 SLP154 T10671106 11056 21083 58011
KFZY 190454Z AUTO 16003KT 8SM BKN039 BKN120 M07/M11 A2998 RMK AO2 SLP159 T10721106 410501200
KFZY 190354Z AUTO 00000KT 8SM BKN120 M08/M12 A2999 RMK AO2 SLP163 T10831117
KFZY 190254Z AUTO 17006KT 9SM CLR M07/M11 A3000 RMK AO2 SLP165 T10671111 58007
KFZY 190154Z AUTO 21006KT 9SM FEW027 BKN034 M06/M10 A3001 RMK AO2 SLP169 T10561100
KFZY 190151Z AUTO 22007KT 9SM SCT025 BKN034 M06/M10 A3001 RMK AO2
KFZY 190054Z AUTO 23012KT 9SM OVC019 M06/M10 A3002 RMK AO2 SLP174 T10561100
KFZY 182354Z AUTO 25010KT 9SM OVC024 M06/M10 A3002 RMK AO2 SLP177 60000 T10561100 11050 21061 53003
KFZY 182254Z AUTO 24013KT 7SM OVC027 M06/M10 A3001 RMK AO2 SLP173 T10561100
KFZY 182241Z AUTO 26012KT 8SM OVC029 M06/M10 A3001 RMK AO2 T10561100
KFZY 182154Z AUTO 25011KT 9SM OVC031 M05/M11 A3000 RMK AO2 SLP170 T10501106
KFZY 182137Z AUTO 25011G17KT 9SM OVC030 M05/M10 A3001 RMK AO2 T10501100
KFZY 182054Z AUTO 24007KT 8SM OVC025 M05/M10 A3001 RMK AO2 SLP174 60000 T10501100 55001
KFZY 181954Z AUTO 24008KT 9SM OVC025 M05/M11 A3000 RMK AO2 SNB11E31 SLP171 P0000 T10501106
KFZY 181854Z AUTO 24009KT 7SM OVC025 M06/M11 A3001 RMK AO2 SNE07 SLP173 P0000 T10561106
KFZY 181754Z AUTO 22010KT 4SM -SN OVC027 M06/M11 A3002 RMK AO2 SNB31 SLP175 P0000 60000 T10611106 11061 21156 58013
KFZY 181701Z AUTO 22013KT 10SM BKN026 OVC036 M06/M12 A3003 RMK AO2 T10611117
KFZY 181654Z AUTO 23011KT 9SM SCT026 OVC036 M06/M12 A3004 RMK AO2 SLP181 T10611117
KFZY 181612Z AUTO 22009G18KT 9SM SCT025 OVC036 M07/M12 A3005 RMK AO2 T10671117
KFZY 181554Z AUTO 23010KT 9SM OVC025 M07/M12 A3005 RMK AO2 SNE24 SLP187 P0000 T10721122
KFZY 181454Z AUTO 23009KT 4SM -SN BKN024 OVC035 M08/M13 A3006 RMK AO2 SNB05 SLP187 P0000 60000 T10831128 53001
KFZY 181446Z AUTO 22008KT 4SM -SN BKN026 OVC035 M09/M13 A3005 RMK AO2 SNB05 P0000 T10891133
KFZY 181423Z AUTO 22009KT 4SM -SN SCT026 OVC032 M09/M14 A3005 RMK AO2 SNB05 P0000 T10941139
KFZY 181354Z AUTO 20008KT 8SM OVC024 M10/M14 A3005 RMK AO2 SLP186 T11001144
KFZY 181254Z AUTO 21007KT 10SM OVC025 M11/M15 A3004 RMK AO2 SLP182 T11111150
KFZY 181154Z AUTO 00000KT 6SM BR OVC027 M16/M18 A3005 RMK AO2 SLP187 I6000 T11561178 11150 21200 56008
KFZY 181105Z AUTO 16005KT 7SM OVC029 M17/M19 A3005 RMK AO2 T11721194
KFZY 181054Z AUTO 00000KT 7SM OVC030 M18/M21 A3005 RMK AO2 SLP188 T11831211
KFZY 180954Z AUTO 00000KT 8SM CLR M18/M21 A3006 RMK AO2 SLP190 T11831206
KFZY 180854Z AUTO 00000KT 7SM CLR M19/M22 A3008 RMK AO2 SLP195 I3000 T11941217 58007
KFZY 180754Z AUTO 00000KT 6SM BR CLR M17/M19 A3010 RMK AO2 SLP201 T11721194
KFZY 180654Z AUTO 00000KT 8SM CLR M17/M19 A3010 RMK AO2 SLP202 I1000 T11721194
KFZY 180554Z AUTO 17003KT 8SM CLR M16/M18 A3010 RMK AO2 SLP202 I1000 I6000 T11611178 11089 21161 58021
KFZY 180454Z AUTO 00000KT 8SM CLR M15/M17 A3013 RMK AO2 SLP212 T11501167 410391150
KFZY 180354Z AUTO 16003KT 9SM CLR M14/M16 A3014 RMK AO2 SLP215 T11391156
KFZY 180254Z AUTO 19004KT 10SM CLR M11/M14 A3016 RMK AO2 SLP223 T11061144 58026
KFZY 180154Z AUTO 18004KT 10SM CLR M11/M15 A3019 RMK AO2 SLP233 T11111150
KFZY 180054Z AUTO 22005KT 10SM SCT030 M09/M14 A3022 RMK AO2 SLP241 T10941144